| time (UTC) | temp F | wind direction | speed MPH | gust MPH | rain 1hr in | rain 24hr in | rain mn in | humidity % | barometer mb |
| 20260905212305 | 89 | 199 | 1.0 | 4.0 | 0.00 | 0.13 | 0.13 | 75 | 1010.3 |
| 20260905211802 | 89 | 0 | 1.0 | 7.0 | 0.00 | 0.13 | 0.13 | 76 | 1010.3 |
| 20260905211302 | 89 | 214 | 2.0 | 7.0 | 0.00 | 0.13 | 0.13 | 75 | 1010.3 |
| 20260905205801 | 87 | 241 | 1.0 | 5.0 | 0.00 | 0.13 | 0.13 | 79 | 1010.2 |
| 20260905205302 | 86 | 219 | 3.0 | 6.0 | 0.00 | 0.13 | 0.13 | 84 | 1010.2 |
| 20260905204804 | 85 | 126 | 4.0 | 6.0 | 0.00 | 0.13 | 0.13 | 84 | 1010.2 |
| 20260905204301 | 85 | 154 | 4.0 | 5.0 | 0.00 | 0.13 | 0.13 | 85 | 1010.3 |
| 20260905203800 | 85 | 93 | 2.0 | 5.0 | 0.00 | 0.13 | 0.13 | 86 | 1010.2 |
| 20260905203301 | 85 | 132 | 2.0 | 4.0 | 0.00 | 0.13 | 0.13 | 85 | 1010.3 |
| 20260905202801 | 84 | 53 | 2.0 | 4.0 | 0.00 | 0.14 | 0.13 | 87 | 1010.3 |
| 20260905202301 | 84 | 92 | 1.0 | 3.0 | 0.00 | 0.14 | 0.13 | 87 | 1010.3 |
| 20260905201301 | 84 | 177 | 1.0 | 3.0 | 0.00 | 0.14 | 0.13 | 88 | 1010.5 |
| 20260905200305 | 84 | 76 | 0.0 | 3.0 | 0.00 | 0.14 | 0.13 | 88 | 1010.5 |
| 20260905195301 | 84 | 0 | 0.0 | 2.0 | 0.00 | 0.14 | 0.13 | 88 | 1010.6 |
| 20260905194801 | 83 | 0 | 0.0 | 2.0 | 0.00 | 0.14 | 0.13 | 89 | 1010.8 |
| 20260905194302 | 83 | 0 | 1.0 | 2.0 | 0.00 | 0.15 | 0.13 | 88 | 1010.8 |
| 20260905193802 | 84 | 153 | 1.0 | 2.0 | 0.00 | 0.16 | 0.13 | 88 | 1010.9 |
| 20260905193301 | 84 | 143 | 1.0 | 3.0 | 0.00 | 0.17 | 0.13 | 87 | 1010.7 |
| 20260905192802 | 84 | 150 | 0.0 | 3.0 | 0.00 | 0.30 | 0.13 | 85 | 1010.6 |
| 20260905192301 | 83 | 0 | 0.0 | 2.0 | 0.00 | 0.54 | 0.13 | 87 | 1010.7 |
| 20260905191802 | 82 | 0 | 0.0 | 2.0 | 0.00 | 0.82 | 0.13 | 88 | 1010.8 |
| 20260905191301 | 81 | 0 | 0.0 | 1.0 | 0.02 | 1.01 | 0.13 | 90 | 1011.1 |
| 20260905190802 | 81 | 0 | 0.0 | 1.0 | 0.06 | 1.14 | 0.13 | 90 | 1011.3 |
| 20260905190302 | 81 | 0 | 0.0 | 1.0 | 0.09 | 1.19 | 0.13 | 91 | 1011.3 |
| 20260905185802 | 81 | 0 | 0.0 | 0.0 | 0.11 | 1.19 | 0.13 | 91 | 1011.3 |
| 20260905185305 | 80 | 0 | 0.0 | 2.0 | 0.11 | 1.19 | 0.13 | 91 | 1011.1 |
| 20260905184802 | 80 | 0 | 0.0 | 2.0 | 0.11 | 1.19 | 0.13 | 91 | 1011.1 |
| 20260905184300 | 80 | 0 | 0.0 | 1.0 | 0.11 | 1.19 | 0.13 | 92 | 1011.1 |
| 20260905183800 | 80 | 0 | 0.0 | 2.0 | 0.11 | 1.19 | 0.13 | 92 | 1011.3 |
| 20260905183301 | 79 | 0 | 0.0 | 3.0 | 0.11 | 1.19 | 0.13 | 91 | 1011.5 |
| 20260905182801 | 79 | 164 | 1.0 | 3.0 | 0.11 | 1.19 | 0.13 | 91 | 1011.5 |
| 20260905182306 | 79 | 174 | 0.0 | 2.0 | 0.11 | 1.19 | 0.13 | 90 | 1011.5 |
| 20260905180800 | 81 | 150 | 2.0 | 14.0 | 0.05 | 1.13 | 0.07 | 88 | 1011.7 |
| 20260905180302 | 82 | 299 | 6.0 | 14.0 | 0.02 | 1.10 | 0.04 | 85 | 1011.8 |
| 20260905175801 | 85 | 301 | 8.0 | 15.0 | 0.00 | 1.09 | 0.02 | 77 | 1011.6 |
| 20260905175301 | 87 | 319 | 5.0 | 15.0 | 0.00 | 1.09 | 0.02 | 75 | 1011.6 |
| 20260905174801 | 88 | 275 | 4.0 | 9.0 | 0.00 | 1.09 | 0.02 | 73 | 1011.5 |
| 20260905174300 | 88 | 308 | 4.0 | 9.0 | 0.00 | 1.10 | 0.02 | 71 | 1011.6 |
| 20260905173801 | 88 | 316 | 4.0 | 8.0 | 0.00 | 1.10 | 0.02 | 73 | 1011.7 |
| 20260905173301 | 88 | 327 | 4.0 | 8.0 | 0.00 | 1.10 | 0.02 | 72 | 1011.6 |
| 20260905172801 | 89 | 17 | 4.0 | 8.0 | 0.00 | 1.10 | 0.02 | 72 | 1011.7 |
| 20260905172301 | 87 | 302 | 4.0 | 10.0 | 0.00 | 1.10 | 0.02 | 76 | 1011.8 |
| 20260905171801 | 87 | 337 | 4.0 | 10.0 | 0.00 | 1.10 | 0.02 | 77 | 1011.9 |
| 20260905171300 | 88 | 345 | 3.0 | 8.0 | 0.00 | 1.10 | 0.02 | 76 | 1012.0 |
| 20260905170301 | 88 | 17 | 3.0 | 7.0 | 0.00 | 1.10 | 0.02 | 74 | 1012.1 |
| 20260905165801 | 86 | 277 | 2.0 | 6.0 | 0.00 | 1.10 | 0.02 | 78 | 1012.2 |
| 20260905165300 | 86 | 313 | 3.0 | 7.0 | 0.00 | 1.10 | 0.02 | 79 | 1012.4 |
| 20260905164800 | 87 | 290 | 3.0 | 7.0 | 0.00 | 1.10 | 0.02 | 78 | 1012.4 |
| 20260905163800 | 87 | 327 | 2.0 | 7.0 | 0.02 | 1.10 | 0.02 | 75 | 1012.5 |
| 20260905163300 | 86 | 14 | 4.0 | 10.0 | 0.02 | 1.10 | 0.02 | 78 | 1012.5 |
| 20260905162801 | 87 | 33 | 2.0 | 10.0 | 0.02 | 1.10 | 0.02 | 77 | 1012.6 |
| 20260905162301 | 86 | 318 | 1.0 | 7.0 | 0.02 | 1.10 | 0.02 | 80 | 1012.7 |
| 20260905161801 | 85 | 0 | 2.0 | 6.0 | 0.02 | 1.10 | 0.02 | 82 | 1012.8 |
| 20260905161301 | 86 | 242 | 2.0 | 6.0 | 0.02 | 1.10 | 0.02 | 80 | 1012.9 |
| 20260905160800 | 86 | 318 | 2.0 | 6.0 | 0.02 | 1.10 | 0.02 | 78 | 1012.9 |
| 20260905160301 | 84 | 320 | 3.0 | 6.0 | 0.02 | 1.10 | 0.02 | 85 | 1013.0 |
| 20260905155801 | 84 | 309 | 3.0 | 6.0 | 0.02 | 1.10 | 0.02 | 85 | 1013.0 |
| 20260905155301 | 84 | 286 | 2.0 | 6.0 | 0.02 | 1.10 | 0.02 | 84 | 1013.1 |
| 20260905154800 | 84 | 243 | 3.0 | 9.0 | 0.02 | 1.10 | 0.02 | 84 | 1013.2 |
| 20260905154301 | 85 | 295 | 4.0 | 9.0 | 0.00 | 1.09 | 0.00 | 82 | 1013.2 |
| 20260905153801 | 86 | 259 | 3.0 | 8.0 | 0.00 | 1.08 | 0.00 | 79 | 1013.1 |
| 20260905152801 | 84 | 303 | 2.0 | 6.0 | 0.00 | 1.08 | 0.00 | 83 | 1013.3 |
| 20260905152301 | 84 | 302 | 2.0 | 8.0 | 0.00 | 1.08 | 0.00 | 84 | 1013.4 |
| 20260905150801 | 84 | 330 | 2.0 | 6.0 | 0.00 | 1.08 | 0.00 | 83 | 1013.3 |
| 20260905145801 | 83 | 203 | 3.0 | 8.0 | 0.00 | 1.08 | 0.00 | 87 | 1013.4 |
| 20260905145301 | 83 | 313 | 1.0 | 8.0 | 0.00 | 1.08 | 0.00 | 86 | 1013.5 |
| 20260905144801 | 83 | 0 | 1.0 | 4.0 | 0.00 | 1.08 | 0.00 | 86 | 1013.5 |
| 20260905144301 | 83 | 306 | 0.0 | 4.0 | 0.00 | 1.08 | 0.00 | 87 | 1013.5 |
| 20260905143800 | 83 | 0 | 1.0 | 5.0 | 0.00 | 1.08 | 0.00 | 86 | 1013.5 |
| 20260905142801 | 82 | 316 | 1.0 | 3.0 | 0.00 | 1.08 | 0.00 | 87 | 1013.5 |
| 20260905142301 | 82 | 177 | 1.0 | 6.0 | 0.00 | 1.08 | 0.00 | 87 | 1013.5 |
| 20260905141800 | 82 | 284 | 2.0 | 6.0 | 0.00 | 1.08 | 0.00 | 88 | 1013.5 |
| 20260905141302 | 82 | 311 | 1.0 | 6.0 | 0.00 | 1.08 | 0.00 | 87 | 1013.4 |
| 20260905140801 | 82 | 293 | 1.0 | 5.0 | 0.00 | 1.08 | 0.00 | 88 | 1013.3 |
| 20260905140301 | 82 | 0 | 2.0 | 7.0 | 0.00 | 1.08 | 0.00 | 88 | 1013.4 |
| 20260905135801 | 82 | 182 | 2.0 | 7.0 | 0.00 | 1.08 | 0.00 | 88 | 1013.3 |
| 20260905135306 | 82 | 324 | 2.0 | 6.0 | 0.00 | 1.08 | 0.00 | 89 | 1013.3 |
| 20260905134801 | 81 | 276 | 1.0 | 6.0 | 0.00 | 1.08 | 0.00 | 92 | 1013.3 |
| 20260905134302 | 80 | 234 | 2.0 | 4.0 | 0.00 | 1.08 | 0.00 | 94 | 1013.5 |
| 20260905133800 | 80 | 108 | 1.0 | 4.0 | 0.00 | 1.08 | 0.00 | 95 | 1013.5 |
| 20260905133301 | 79 | 187 | 1.0 | 4.0 | 0.00 | 1.08 | 0.00 | 96 | 1013.5 |
| 20260905132801 | 79 | 0 | 1.0 | 4.0 | 0.00 | 1.08 | 0.00 | 96 | 1013.4 |
| 20260905132305 | 78 | 190 | 1.0 | 4.0 | 0.00 | 1.08 | 0.00 | 96 | 1013.3 |
| 20260905131801 | 78 | 91 | 1.0 | 5.0 | 0.00 | 1.08 | 0.00 | 96 | 1013.3 |
| 20260905131301 | 78 | 230 | 1.0 | 5.0 | 0.00 | 1.08 | 0.00 | 96 | 1013.4 |
| 20260905130801 | 78 | 0 | 1.0 | 5.0 | 0.00 | 1.08 | 0.00 | 96 | 1013.6 |
| 20260905130302 | 78 | 196 | 2.0 | 5.0 | 0.00 | 1.08 | 0.00 | 96 | 1013.5 |
| 20260905125801 | 77 | 0 | 1.0 | 3.0 | 0.00 | 1.08 | 0.00 | 96 | 1013.4 |
| 20260905125305 | 77 | 0 | 0.0 | 3.0 | 0.00 | 1.08 | 0.00 | 96 | 1013.4 |
| 20260905124804 | 77 | 0 | 0.0 | 3.0 | 0.00 | 1.08 | 0.00 | 96 | 1013.4 |
| 20260905124300 | 76 | 262 | 0.0 | 3.0 | 0.00 | 1.08 | 0.00 | 96 | 1013.3 |
| 20260905123801 | 76 | 231 | 0.0 | 3.0 | 0.00 | 1.08 | 0.00 | 96 | 1013.3 |
| 20260905123305 | 76 | 0 | 0.0 | 0.0 | 0.00 | 1.08 | 0.00 | 95 | 1013.3 |
| 20260905122301 | 76 | 0 | 0.0 | 1.0 | 0.00 | 1.08 | 0.00 | 95 | 1013.2 |
| 20260905121804 | 76 | 0 | 0.0 | 0.0 | 0.00 | 1.08 | 0.00 | 95 | 1013.1 |
| 20260905115801 | 76 | 0 | 0.0 | 0.0 | 0.00 | 1.08 | 0.00 | 95 | 1012.7 |
| 20260905115301 | 76 | 0 | 0.0 | 0.0 | 0.00 | 1.08 | 0.00 | 95 | 1012.7 |
| 20260905114801 | 76 | 0 | 0.0 | 0.0 | 0.00 | 1.08 | 0.00 | 95 | 1012.6 |
| 20260905114300 | 76 | 0 | 0.0 | 0.0 | 0.00 | 1.08 | 0.00 | 95 | 1012.6 |
| 20260905113801 | 76 | 0 | 0.0 | 0.0 | 0.00 | 1.08 | 0.00 | 95 | 1012.6 |
| 20260905113301 | 75 | 0 | 0.0 | 1.0 | 0.00 | 1.08 | 0.00 | 95 | 1012.5 |
| 20260905112306 | 75 | 0 | 0.0 | 0.0 | 0.00 | 1.08 | 0.00 | 95 | 1012.2 |
| 20260905111802 | 75 | 0 | 0.0 | 0.0 | 0.00 | 1.08 | 0.00 | 95 | 1012.2 |
| 20260905110801 | 75 | 0 | 0.0 | 0.0 | 0.00 | 1.08 | 0.00 | 95 | 1012.2 |
| 20260905110301 | 75 | 0 | 0.0 | 0.0 | 0.00 | 1.08 | 0.00 | 95 | 1012.2 |
| 20260905105802 | 75 | 0 | 0.0 | 0.0 | 0.00 | 1.08 | 0.00 | 95 | 1012.2 |
| 20260905105305 | 75 | 0 | 0.0 | 1.0 | 0.00 | 1.08 | 0.00 | 95 | 1012.1 |
| 20260905104301 | 75 | 0 | 0.0 | 0.0 | 0.00 | 1.08 | 0.00 | 95 | 1012.0 |
| 20260905103802 | 75 | 0 | 0.0 | 1.0 | 0.00 | 1.08 | 0.00 | 95 | 1011.9 |
| 20260905102802 | 75 | 0 | 0.0 | 0.0 | 0.00 | 1.08 | 0.00 | 95 | 1011.9 |
| 20260905101802 | 75 | 0 | 0.0 | 0.0 | 0.00 | 1.08 | 0.00 | 95 | 1012.0 |
| 20260905100302 | 75 | 0 | 0.0 | 0.0 | 0.00 | 1.08 | 0.00 | 95 | 1012.0 |
| 20260905095806 | 75 | 0 | 0.0 | 0.0 | 0.00 | 1.08 | 0.00 | 95 | 1012.0 |
| 20260905095305 | 75 | 0 | 0.0 | 0.0 | 0.00 | 1.08 | 0.00 | 95 | 1012.1 |
| 20260905094802 | 75 | 0 | 0.0 | 0.0 | 0.00 | 1.08 | 0.00 | 95 | 1012.1 |
| 20260905094302 | 75 | 0 | 0.0 | 0.0 | 0.00 | 1.08 | 0.00 | 95 | 1012.2 |
| 20260905093801 | 75 | 0 | 0.0 | 0.0 | 0.00 | 1.08 | 0.00 | 95 | 1012.2 |
| 20260905092802 | 75 | 0 | 0.0 | 1.0 | 0.00 | 1.08 | 0.00 | 95 | 1012.2 |
| 20260905092305 | 75 | 0 | 0.0 | 1.0 | 0.00 | 1.08 | 0.00 | 95 | 1012.2 |
| 20260905091302 | 75 | 0 | 0.0 | 1.0 | 0.00 | 1.08 | 0.00 | 95 | 1012.0 |
| 20260905090802 | 75 | 0 | 0.0 | 2.0 | 0.00 | 1.08 | 0.00 | 95 | 1011.9 |
| 20260905090257 | 75 | 0 | 0.0 | 2.0 | 0.00 | 1.08 | 0.00 | 95 | 1011.9 |
| 20260905085249 | 75 | 0 | 0.0 | 0.0 | 0.00 | 1.08 | 0.00 | 95 | 1011.9 |
| 20260905084748 | 75 | 0 | 0.0 | 0.0 | 0.00 | 1.08 | 0.00 | 95 | 1011.9 |
| 20260905083750 | 75 | 0 | 0.0 | 1.0 | 0.00 | 1.08 | 0.00 | 95 | 1011.8 |
| 20260905083248 | 75 | 0 | 0.0 | 0.0 | 0.00 | 1.08 | 0.00 | 95 | 1011.8 |
| 20260905082749 | 75 | 0 | 0.0 | 0.0 | 0.00 | 1.08 | 0.00 | 95 | 1011.8 |
| 20260905082249 | 75 | 0 | 0.0 | 0.0 | 0.00 | 1.08 | 0.00 | 95 | 1011.8 |
| 20260905081748 | 75 | 0 | 0.0 | 0.0 | 0.00 | 1.08 | 0.00 | 95 | 1011.8 |
| 20260905081249 | 75 | 0 | 0.0 | 0.0 | 0.00 | 1.08 | 0.00 | 95 | 1011.8 |
| 20260905080750 | 75 | 0 | 0.0 | 0.0 | 0.00 | 1.08 | 0.00 | 95 | 1011.8 |
| 20260905080250 | 75 | 0 | 0.0 | 0.0 | 0.00 | 1.08 | 0.00 | 95 | 1011.9 |
| 20260905075234 | 75 | 0 | 0.0 | 0.0 | 0.00 | 1.08 | 0.00 | 95 | 1011.9 |
| 20260905074734 | 75 | 0 | 0.0 | 2.0 | 0.00 | 1.08 | 0.00 | 95 | 1011.9 |
| 20260905073735 | 75 | 0 | 0.0 | 1.0 | 0.00 | 1.08 | 0.00 | 95 | 1011.9 |
| 20260905073235 | 75 | 172 | 0.0 | 1.0 | 0.00 | 1.08 | 0.00 | 95 | 1012.0 |
| 20260905072735 | 75 | 0 | 0.0 | 0.0 | 0.00 | 1.08 | 0.00 | 95 | 1012.1 |
| 20260905072232 | 76 | 0 | 0.0 | 0.0 | 0.00 | 1.08 | 0.00 | 95 | 1012.2 |
| 20260905071732 | 76 | 0 | 0.0 | 2.0 | 0.00 | 1.08 | 0.00 | 95 | 1012.3 |
| 20260905071232 | 76 | 0 | 0.0 | 2.0 | 0.00 | 1.08 | 0.00 | 95 | 1012.3 |
| 20260905070230 | 75 | 0 | 0.0 | 0.0 | 0.00 | 1.08 | 0.00 | 95 | 1012.5 |
| 20260905065730 | 75 | 0 | 0.0 | 0.0 | 0.00 | 1.08 | 0.00 | 95 | 1012.4 |
| 20260905065230 | 75 | 0 | 0.0 | 0.0 | 0.00 | 1.08 | 0.00 | 95 | 1012.4 |
| 20260905064730 | 75 | 0 | 0.0 | 0.0 | 0.00 | 1.08 | 0.00 | 95 | 1012.5 |
| 20260905064229 | 75 | 0 | 0.0 | 1.0 | 0.00 | 1.08 | 0.00 | 95 | 1012.5 |
| 20260905063729 | 75 | 0 | 0.0 | 1.0 | 0.00 | 1.08 | 0.00 | 95 | 1012.5 |
| 20260905063230 | 75 | 0 | 0.0 | 0.0 | 0.00 | 1.08 | 0.00 | 95 | 1012.5 |
| 20260905062731 | 75 | 0 | 0.0 | 0.0 | 0.00 | 1.08 | 0.00 | 95 | 1012.5 |
| 20260905062230 | 75 | 0 | 0.0 | 2.0 | 0.00 | 1.08 | 0.00 | 95 | 1012.6 |
| 20260905061230 | 75 | 0 | 0.0 | 1.0 | 0.00 | 1.08 | 0.00 | 95 | 1012.6 |
| 20260905060729 | 75 | 0 | 0.0 | 1.0 | 0.00 | 1.08 | 0.00 | 95 | 1012.6 |
| 20260905060231 | 76 | 0 | 0.0 | 0.0 | 0.00 | 1.08 | 0.00 | 95 | 1012.7 |
| 20260905055730 | 76 | 0 | 0.0 | 1.0 | 0.00 | 1.08 | 0.00 | 95 | 1012.7 |
| 20260905055230 | 76 | 0 | 0.0 | 1.0 | 0.00 | 1.08 | 0.00 | 95 | 1012.8 |
| 20260905054730 | 76 | 0 | 0.0 | 1.0 | 0.00 | 1.08 | 0.00 | 95 | 1012.9 |
| 20260905054229 | 76 | 0 | 0.0 | 1.0 | 0.00 | 1.08 | 0.00 | 95 | 1012.9 |
| 20260905053729 | 76 | 114 | 0.0 | 2.0 | 0.00 | 1.08 | 0.00 | 95 | 1013.0 |
| 20260905052730 | 76 | 192 | 0.0 | 2.0 | 0.00 | 1.08 | 0.00 | 95 | 1013.0 |
| 20260905052230 | 76 | 0 | 0.0 | 2.0 | 0.00 | 1.08 | 0.00 | 95 | 1013.1 |
| 20260905051730 | 76 | 0 | 0.0 | 2.0 | 0.00 | 1.08 | 0.00 | 95 | 1013.1 |
| 20260905051230 | 76 | 175 | 0.0 | 2.0 | 0.00 | 1.08 | 0.00 | 95 | 1013.1 |
| 20260905050231 | 76 | 0 | 0.0 | 2.0 | 0.00 | 1.08 | 0.00 | 95 | 1013.1 |
| 20260905045230 | 76 | 0 | 0.0 | 3.0 | 0.00 | 1.08 | 0.00 | 95 | 1013.2 |
| 20260905044730 | 76 | 0 | 1.0 | 3.0 | 0.00 | 1.08 | 0.00 | 95 | 1013.2 |
| 20260905043729 | 76 | 0 | 0.0 | 1.0 | 0.00 | 1.08 | 0.00 | 95 | 1013.3 |
| 20260905043231 | 76 | 0 | 0.0 | 2.0 | 0.00 | 1.08 | 0.00 | 95 | 1013.2 |
| 20260905042731 | 76 | 0 | 1.0 | 4.0 | 0.00 | 1.08 | 0.00 | 95 | 1013.2 |
| 20260905042231 | 76 | 0 | 1.0 | 4.0 | 0.00 | 1.08 | 0.00 | 95 | 1013.2 |
| 20260905041730 | 77 | 71 | 0.0 | 2.0 | 0.00 | 1.08 | 0.00 | 95 | 1013.1 |
| 20260905041229 | 77 | 0 | 0.0 | 1.0 | 0.00 | 1.08 | 0.00 | 95 | 1013.0 |
| 20260905040729 | 77 | 0 | 0.0 | 2.0 | 0.00 | 1.08 | 0.00 | 95 | 1013.1 |
| 20260905035730 | 77 | 0 | 1.0 | 3.0 | 0.00 | 1.08 | 1.08 | 95 | 1013.0 |
| 20260905035230 | 77 | 214 | 1.0 | 3.0 | 0.00 | 1.08 | 1.08 | 95 | 1013.1 |
| 20260905034730 | 77 | 0 | 0.0 | 2.0 | 0.00 | 1.08 | 1.08 | 95 | 1013.2 |
| 20260905034229 | 77 | 0 | 1.0 | 2.0 | 0.00 | 1.08 | 1.08 | 95 | 1013.2 |
| 20260905033730 | 77 | 188 | 0.0 | 2.0 | 0.00 | 1.08 | 1.08 | 95 | 1013.2 |
| 20260905033231 | 77 | 208 | 0.0 | 2.0 | 0.00 | 1.08 | 1.08 | 95 | 1013.2 |
| 20260905032730 | 77 | 0 | 0.0 | 0.0 | 0.00 | 1.08 | 1.08 | 95 | 1013.2 |
| 20260905031729 | 77 | 0 | 0.0 | 0.0 | 0.00 | 1.08 | 1.08 | 94 | 1013.4 |
| 20260905031229 | 77 | 0 | 0.0 | 0.0 | 0.00 | 1.08 | 1.08 | 95 | 1013.6 |
| 20260905030231 | 77 | 0 | 0.0 | 0.0 | 0.00 | 1.08 | 1.08 | 94 | 1013.6 |
| 20260905025731 | 77 | 0 | 0.0 | 0.0 | 0.00 | 1.08 | 1.08 | 94 | 1013.7 |
| 20260905025230 | 77 | 0 | 0.0 | 0.0 | 0.00 | 1.08 | 1.08 | 94 | 1013.8 |
| 20260905024230 | 76 | 0 | 0.0 | 0.0 | 0.00 | 1.08 | 1.08 | 94 | 1013.8 |
| 20260905023729 | 76 | 0 | 0.0 | 0.0 | 0.00 | 1.08 | 1.08 | 94 | 1013.9 |
| 20260905023230 | 76 | 0 | 0.0 | 2.0 | 0.00 | 1.08 | 1.08 | 94 | 1013.9 |
| 20260905022734 | 76 | 0 | 0.0 | 2.0 | 0.00 | 1.08 | 1.08 | 94 | 1013.9 |
| 20260905022231 | 76 | 0 | 0.0 | 2.0 | 0.00 | 1.08 | 1.08 | 94 | 1013.8 |
| 20260905021730 | 76 | 194 | 0.0 | 2.0 | 0.00 | 1.08 | 1.08 | 94 | 1013.9 |
| 20260905020729 | 76 | 67 | 0.0 | 2.0 | 0.00 | 1.08 | 1.08 | 94 | 1014.0 |
| 20260905020230 | 76 | 0 | 0.0 | 2.0 | 0.00 | 1.08 | 1.08 | 94 | 1013.9 |
| 20260905015729 | 76 | 196 | 1.0 | 4.0 | 0.00 | 1.08 | 1.08 | 94 | 1013.8 |
| 20260905015229 | 76 | 0 | 1.0 | 4.0 | 0.00 | 1.08 | 1.08 | 94 | 1013.8 |
| 20260905014729 | 76 | 186 | 0.0 | 2.0 | 0.00 | 1.08 | 1.08 | 94 | 1013.7 |
| 20260905014228 | 76 | 0 | 1.0 | 3.0 | 0.00 | 1.08 | 1.08 | 94 | 1013.7 |
| 20260905013230 | 76 | 0 | 0.0 | 2.0 | 0.00 | 1.08 | 1.08 | 94 | 1013.7 |
| 20260905012729 | 76 | 0 | 0.0 | 2.0 | 0.00 | 1.08 | 1.08 | 94 | 1013.6 |
| 20260905012229 | 76 | 165 | 0.0 | 2.0 | 0.00 | 1.08 | 1.08 | 94 | 1013.6 |
| 20260905011729 | 76 | 0 | 0.0 | 2.0 | 0.00 | 1.08 | 1.08 | 94 | 1013.6 |
| 20260905011229 | 76 | 0 | 0.0 | 1.0 | 0.00 | 1.08 | 1.08 | 94 | 1013.6 |
| 20260905010732 | 76 | 0 | 0.0 | 0.0 | 0.00 | 1.08 | 1.08 | 94 | 1013.5 |
| 20260905005729 | 76 | 0 | 0.0 | 1.0 | 0.00 | 1.08 | 1.08 | 94 | 1013.4 |
| 20260905005228 | 76 | 0 | 0.0 | 1.0 | 0.00 | 1.08 | 1.08 | 94 | 1013.3 |
| 20260905004729 | 76 | 0 | 0.0 | 1.0 | 0.00 | 1.08 | 1.08 | 94 | 1013.2 |
| 20260905004228 | 76 | 0 | 0.0 | 1.0 | 0.00 | 1.08 | 1.08 | 94 | 1013.2 |
| 20260905003728 | 76 | 0 | 0.0 | 1.0 | 0.00 | 1.08 | 1.08 | 94 | 1013.2 |
| 20260905003229 | 76 | 0 | 0.0 | 1.0 | 0.00 | 1.08 | 1.08 | 94 | 1013.2 |
| 20260905002731 | 76 | 241 | 0.0 | 1.0 | 0.00 | 1.08 | 1.08 | 94 | 1013.3 |
| 20260905002229 | 76 | 0 | 0.0 | 0.0 | 0.00 | 1.08 | 1.08 | 94 | 1013.3 |
| 20260905001233 | 76 | 0 | 1.0 | 2.0 | 0.00 | 1.08 | 1.08 | 94 | 1013.2 |
| 20260905000728 | 76 | 146 | 1.0 | 2.0 | 0.00 | 1.08 | 1.08 | 94 | 1013.1 |
| 20260905000229 | 76 | 173 | 1.0 | 2.0 | 0.00 | 1.08 | 1.08 | 94 | 1013.1 |
| 20260904235729 | 76 | 160 | 0.0 | 2.0 | 0.00 | 1.08 | 1.08 | 94 | 1013.0 |
| 20260904234729 | 76 | 308 | 1.0 | 2.0 | 0.00 | 1.08 | 1.08 | 94 | 1013.0 |
| 20260904234229 | 76 | 208 | 0.0 | 2.0 | 0.00 | 1.08 | 1.08 | 93 | 1013.0 |
| 20260904233728 | 76 | 0 | 0.0 | 2.0 | 0.00 | 1.08 | 1.08 | 93 | 1013.1 |
| 20260904233229 | 76 | 0 | 0.0 | 2.0 | 0.00 | 1.08 | 1.08 | 93 | 1013.2 |
| 20260904232729 | 76 | 0 | 0.0 | 2.0 | 0.00 | 1.08 | 1.08 | 93 | 1013.3 |
| 20260904232229 | 76 | 18 | 0.0 | 2.0 | 0.00 | 1.08 | 1.08 | 93 | 1013.4 |
| 20260904231729 | 76 | 0 | 0.0 | 1.0 | 0.00 | 1.08 | 1.08 | 93 | 1013.3 |
| 20260904231228 | 76 | 0 | 0.0 | 0.0 | 0.00 | 1.08 | 1.08 | 93 | 1013.3 |
| 20260904230729 | 76 | 0 | 0.0 | 2.0 | 0.00 | 1.08 | 1.08 | 93 | 1013.3 |
| 20260904230229 | 76 | 0 | 0.0 | 2.0 | 0.00 | 1.08 | 1.08 | 93 | 1013.3 |
| 20260904225729 | 76 | 191 | 0.0 | 1.0 | 0.00 | 1.08 | 1.08 | 93 | 1013.1 |
| 20260904225229 | 76 | 118 | 0.0 | 1.0 | 0.00 | 1.08 | 1.08 | 93 | 1013.0 |
| 20260904224729 | 76 | 196 | 0.0 | 2.0 | 0.00 | 1.08 | 1.08 | 93 | 1013.0 |
| 20260904224229 | 76 | 0 | 1.0 | 4.0 | 0.00 | 1.08 | 1.08 | 93 | 1013.2 |
| 20260904223229 | 76 | 264 | 1.0 | 3.0 | 0.00 | 1.08 | 1.08 | 93 | 1013.2 |
| 20260904222729 | 76 | 327 | 1.0 | 3.0 | 0.00 | 1.08 | 1.08 | 93 | 1013.3 |
| 20260904222229 | 77 | 241 | 2.0 | 5.0 | 0.00 | 1.08 | 1.08 | 93 | 1013.4 |
| 20260904221230 | 77 | 323 | 2.0 | 5.0 | 0.00 | 1.08 | 1.08 | 93 | 1013.3 |
| 20260904220730 | 78 | 232 | 2.0 | 4.0 | 0.00 | 1.08 | 1.08 | 93 | 1013.3 |
| 20260904220230 | 78 | 274 | 2.0 | 3.0 | 0.00 | 1.08 | 1.08 | 93 | 1013.2 |
| 20260904215729 | 78 | 273 | 2.0 | 3.0 | 0.01 | 1.08 | 1.08 | 93 | 1013.4 |
| 20260904214730 | 78 | 267 | 1.0 | 3.0 | 0.01 | 1.08 | 1.08 | 93 | 1013.1 |
| 20260904214229 | 78 | 247 | 2.0 | 3.0 | 0.01 | 1.08 | 1.08 | 93 | 1013.1 |
| 20260904213729 | 78 | 230 | 2.0 | 4.0 | 0.01 | 1.08 | 1.08 | 93 | 1013.1 |
| 20260904212730 | 78 | 283 | 1.0 | 3.0 | 0.01 | 1.08 | 1.08 | 93 | 1012.8 |